Time;durP1;ratioP1;P1;durP2;ratioP2;P2;SDS_P1;SDS_P2;PMS_P1;PMS_P2;Temp;Humidity;BMP_temperature;BMP_pressure;BME280_temperature;BME280_humidity;BME280_pressure;Samples;Min_cycle;Max_cycle;Signal;HPM_P1;HPM_P2
2022/11/21 00:01:14;;;;;;;24.07;14.77;;;;;;;;;;5060413;27;89096;-64
2022/11/21 00:03:42;;;;;;;24.43;14.03;;;;;;;;;;5060124;27;89130;-65
2022/11/21 00:06:11;;;;;;;27.47;13.77;;;;;;;;;;5060581;27;87077;-65
2022/11/21 00:08:39;;;;;;;23.53;14.77;;;;;;;;;;5061611;27;86308;-65
2022/11/21 00:11:07;;;;;;;26.87;15.47;;;;;;;;;;5060104;27;88877;-66
2022/11/21 00:13:37;;;;;;;26.30;13.67;;;;;;;;;;5060020;27;88982;-63
2022/11/21 00:16:05;;;;;;;22.37;13.47;;;;;;;;;;5058938;27;88049;-63
2022/11/21 00:18:34;;;;;;;21.03;12.93;;;;;;;;;;5059370;27;87865;-63
2022/11/21 00:21:06;;;;;;;23.83;13.00;;;;;;;;;;5058655;27;92419;-63
2022/11/21 00:23:35;;;;;;;20.87;11.17;;;;;;;;;;5062903;27;89243;-63
2022/11/21 00:26:06;;;;;;;20.07;11.17;;;;;;;;;;5064269;27;87098;-63
2022/11/21 00:28:35;;;;;;;19.00;11.23;;;;;;;;;;5062608;27;86914;-63
2022/11/21 00:31:04;;;;;;;21.10;10.20;;;;;;;;;;5063548;27;89144;-63
2022/11/21 00:33:33;;;;;;;19.80;11.50;;;;;;;;;;5062768;27;86581;-64
2022/11/21 00:36:06;;;;;;;19.47;10.50;;;;;;;;;;5050573;27;86857;-63
2022/11/21 00:38:34;;;;;;;18.73;11.00;;;;;;;;;;5056736;27;86980;-63
2022/11/21 00:41:02;;;;;;;17.47;10.47;;;;;;;;;;5060849;27;88951;-63
2022/11/21 00:43:31;;;;;;;15.87;9.43;;;;;;;;;;5062307;27;89908;-63
2022/11/21 00:46:01;;;;;;;14.00;9.67;;;;;;;;;;5062327;27;87061;-63
2022/11/21 00:48:31;;;;;;;14.27;9.23;;;;;;;;;;5062573;27;86759;-63
2022/11/21 00:51:00;;;;;;;17.27;9.77;;;;;;;;;;5063286;27;88677;-63
2022/11/21 00:53:28;;;;;;;18.20;8.63;;;;;;;;;;5063380;27;91864;-63
2022/11/21 00:55:57;;;;;;;18.03;9.70;;;;;;;;;;5063763;27;87079;-63
2022/11/21 00:58:25;;;;;;;15.10;9.53;;;;;;;;;;5063714;27;86244;-63
2022/11/21 01:00:53;;;;;;;14.67;7.53;;;;;;;;;;5070197;27;89167;-63
2022/11/21 01:03:22;;;;;;;17.57;8.57;;;;;;;;;;5064120;27;88971;-63
2022/11/21 01:05:51;;;;;;;15.40;7.60;;;;;;;;;;5064994;27;87946;-63
2022/11/21 01:08:20;;;;;;;16.73;8.97;;;;;;;;;;5067459;27;87035;-63
2022/11/21 01:10:48;;;;;;;12.77;7.33;;;;;;;;;;5068780;27;89144;-63
2022/11/21 01:13:16;;;;;;;11.23;6.90;;;;;;;;;;5069308;27;87756;-62
2022/11/21 01:15:45;;;;;;;11.23;7.07;;;;;;;;;;5066963;27;86982;-62
2022/11/21 01:18:13;;;;;;;13.73;7.00;;;;;;;;;;5067015;27;87029;-62
2022/11/21 01:20:41;;;;;;;11.13;6.53;;;;;;;;;;5068092;27;89175;-62
2022/11/21 01:23:11;;;;;;;10.70;6.13;;;;;;;;;;5071002;27;89020;-62
2022/11/21 01:25:39;;;;;;;11.37;7.03;;;;;;;;;;5085177;27;86809;-62
2022/11/21 01:28:08;;;;;;;11.13;7.00;;;;;;;;;;5083515;27;86923;-62
2022/11/21 01:30:36;;;;;;;9.93;5.97;;;;;;;;;;5065615;27;90408;-62
2022/11/21 01:33:04;;;;;;;8.53;5.73;;;;;;;;;;5065959;27;89818;-61
2022/11/21 01:35:33;;;;;;;8.63;6.23;;;;;;;;;;5066671;27;87725;-62
2022/11/21 01:38:01;;;;;;;8.93;4.77;;;;;;;;;;5066619;27;87144;-61
2022/11/21 01:40:31;;;;;;;10.73;5.63;;;;;;;;;;5066797;27;87094;-62
2022/11/21 01:43:00;;;;;;;6.80;4.40;;;;;;;;;;5066985;27;88996;-62
2022/11/21 01:45:47;;;;;;;8.20;5.13;;;;;;;;;;5067445;27;87161;-62
2022/11/21 01:48:15;;;;;;;7.77;5.03;;;;;;;;;;5067540;27;86634;-62
2022/11/21 01:50:43;;;;;;;9.73;4.90;;;;;;;;;;5068003;27;89174;-61
2022/11/21 01:53:12;;;;;;;8.73;5.00;;;;;;;;;;5073533;27;91631;-61
2022/11/21 01:55:41;;;;;;;12.43;5.47;;;;;;;;;;5074864;27;87983;-61
2022/11/21 01:58:10;;;;;;;7.50;4.77;;;;;;;;;;5073706;27;88058;-61
2022/11/21 02:00:39;;;;;;;9.37;4.80;;;;;;;;;;5075446;27;88049;-61
2022/11/21 02:03:08;;;;;;;7.10;4.87;;;;;;;;;;5073599;27;87454;-61
2022/11/21 02:05:36;;;;;;;7.53;4.83;;;;;;;;;;5071305;27;86759;-61
2022/11/21 02:08:05;;;;;;;5.40;3.93;;;;;;;;;;5070199;27;87995;-61
2022/11/21 02:10:33;;;;;;;6.20;4.40;;;;;;;;;;5070803;27;89184;-61
2022/11/21 02:13:03;;;;;;;7.77;3.57;;;;;;;;;;5073371;27;88834;-61
2022/11/21 02:15:31;;;;;;;5.70;3.63;;;;;;;;;;5071369;27;86818;-61
2022/11/21 02:17:59;;;;;;;7.23;4.13;;;;;;;;;;5072514;27;86651;-60
2022/11/21 02:20:28;;;;;;;8.57;4.47;;;;;;;;;;5068502;27;89112;-61
2022/11/21 02:22:59;;;;;;;6.93;3.53;;;;;;;;;;5069468;27;89955;-61
2022/11/21 02:25:29;;;;;;;7.23;3.70;;;;;;;;;;5071416;27;86874;-61
2022/11/21 02:27:58;;;;;;;5.70;3.23;;;;;;;;;;5073288;27;86891;-61
2022/11/21 02:30:27;;;;;;;5.37;3.43;;;;;;;;;;5082871;27;90271;-61
2022/11/21 02:32:56;;;;;;;5.63;3.53;;;;;;;;;;5063993;27;88831;-61
2022/11/21 02:35:24;;;;;;;5.00;3.00;;;;;;;;;;5065208;27;87145;-62
2022/11/21 02:37:54;;;;;;;5.83;3.07;;;;;;;;;;5064209;27;86317;-61
2022/11/21 02:40:24;;;;;;;4.97;3.13;;;;;;;;;;5063863;27;88448;-61
2022/11/21 02:42:57;;;;;;;6.07;2.87;;;;;;;;;;5064441;27;87741;-61
2022/11/21 02:45:27;;;;;;;5.43;3.50;;;;;;;;;;5063280;27;87987;-61
2022/11/21 02:47:57;;;;;;;4.03;2.73;;;;;;;;;;5063511;27;86873;-61
2022/11/21 02:50:31;;;;;;;4.63;2.53;;;;;;;;;;5062359;27;89017;-61
2022/11/21 02:53:00;;;;;;;4.53;3.23;;;;;;;;;;5063435;27;88767;-61
2022/11/21 02:55:28;;;;;;;2.87;2.50;;;;;;;;;;5063771;27;87008;-61
2022/11/21 02:57:57;;;;;;;5.23;2.27;;;;;;;;;;5063664;27;87086;-61
2022/11/21 03:00:32;;;;;;;2.63;2.23;;;;;;;;;;5064083;27;90151;-61
2022/11/21 03:03:00;;;;;;;4.53;2.40;;;;;;;;;;5063509;27;88733;-61
2022/11/21 03:05:28;;;;;;;3.80;2.17;;;;;;;;;;5063734;27;86878;-61
2022/11/21 03:07:57;;;;;;;2.70;1.93;;;;;;;;;;5063317;27;87032;-60
2022/11/21 03:10:25;;;;;;;3.47;2.40;;;;;;;;;;5061966;27;90244;-61
2022/11/21 03:12:59;;;;;;;4.60;2.47;;;;;;;;;;5062969;27;88483;-61
2022/11/21 03:15:30;;;;;;;2.00;1.60;;;;;;;;;;5062579;27;87055;-61
2022/11/21 03:18:00;;;;;;;3.47;2.13;;;;;;;;;;5062800;27;87001;-61
2022/11/21 03:20:28;;;;;;;2.83;1.73;;;;;;;;;;5062831;27;89171;-61
2022/11/21 03:22:56;;;;;;;3.43;2.00;;;;;;;;;;5063294;27;88921;-61
2022/11/21 03:25:24;;;;;;;3.97;2.87;;;;;;;;;;5063379;27;86962;-63
2022/11/21 03:27:53;;;;;;;4.07;1.90;;;;;;;;;;5062814;27;86621;-61
2022/11/21 03:30:21;;;;;;;2.53;1.63;;;;;;;;;;5063032;27;88294;-61
2022/11/21 03:32:51;;;;;;;3.23;1.77;;;;;;;;;;5063271;27;88484;-61
2022/11/21 03:35:19;;;;;;;3.17;2.10;;;;;;;;;;5062882;27;87929;-61
2022/11/21 03:37:48;;;;;;;3.73;2.33;;;;;;;;;;5062679;27;87059;-61
2022/11/21 03:40:16;;;;;;;2.80;1.97;;;;;;;;;;5062746;27;89183;-61
2022/11/21 03:42:44;;;;;;;3.03;1.93;;;;;;;;;;5046581;27;88967;-61
2022/11/21 03:45:13;;;;;;;1.93;1.70;;;;;;;;;;5062950;27;87133;-61
2022/11/21 03:47:41;;;;;;;2.80;2.10;;;;;;;;;;5062035;27;86997;-61
2022/11/21 03:50:13;;;;;;;2.43;2.10;;;;;;;;;;5061815;27;89211;-61
2022/11/21 03:52:42;;;;;;;3.73;1.67;;;;;;;;;;5062392;27;88430;-61
2022/11/21 03:55:10;;;;;;;2.57;1.37;;;;;;;;;;5062281;27;87083;-61
2022/11/21 03:57:39;;;;;;;2.50;1.73;;;;;;;;;;5062414;27;87008;-61
2022/11/21 04:00:08;;;;;;;3.90;1.63;;;;;;;;;;5061223;27;90067;-61
2022/11/21 04:02:36;;;;;;;2.07;1.80;;;;;;;;;;5062356;27;88694;-61
2022/11/21 04:05:05;;;;;;;2.93;1.60;;;;;;;;;;5062849;27;87114;-61
2022/11/21 04:07:35;;;;;;;1.70;1.60;;;;;;;;;;5057593;27;86980;-61
2022/11/21 04:10:03;;;;;;;2.10;1.63;;;;;;;;;;5060798;27;88044;-61
2022/11/21 04:12:32;;;;;;;1.40;1.13;;;;;;;;;;5047650;27;88848;-61
2022/11/21 04:15:00;;;;;;;2.77;1.63;;;;;;;;;;5062437;27;86888;-61
2022/11/21 04:17:28;;;;;;;1.60;1.50;;;;;;;;;;5062513;27;86095;-61
2022/11/21 04:19:56;;;;;;;3.07;1.67;;;;;;;;;;5061856;27;89029;-62
2022/11/21 04:22:25;;;;;;;2.00;1.50;;;;;;;;;;5042119;28;87710;-61
2022/11/21 04:24:54;;;;;;;3.27;1.90;;;;;;;;;;5053995;27;87963;-61
2022/11/21 04:27:23;;;;;;;2.00;1.30;;;;;;;;;;5061325;27;87058;-61
2022/11/21 04:29:51;;;;;;;1.40;1.30;;;;;;;;;;5062145;27;89098;-61
2022/11/21 04:32:19;;;;;;;1.07;1.00;;;;;;;;;;5061076;27;89083;-62
2022/11/21 04:34:48;;;;;;;2.27;1.57;;;;;;;;;;5061557;27;86992;-62
2022/11/21 04:37:16;;;;;;;1.70;1.27;;;;;;;;;;5060899;27;87193;-62
2022/11/21 04:39:44;;;;;;;1.90;1.63;;;;;;;;;;5060595;27;89136;-62
2022/11/21 04:42:14;;;;;;;3.70;1.80;;;;;;;;;;5061796;27;88592;-62
2022/11/21 04:44:42;;;;;;;2.17;1.47;;;;;;;;;;5061101;27;87052;-62
2022/11/21 04:47:11;;;;;;;1.10;1.00;;;;;;;;;;5061455;27;87394;-61
2022/11/21 04:49:39;;;;;;;2.23;1.63;;;;;;;;;;5060972;27;90087;-62
2022/11/21 04:52:07;;;;;;;1.37;1.10;;;;;;;;;;5061514;27;87497;-61
2022/11/21 04:54:36;;;;;;;1.80;1.37;;;;;;;;;;5061586;27;86852;-61
2022/11/21 04:57:04;;;;;;;1.43;1.33;;;;;;;;;;5060922;27;87004;-61
2022/11/21 04:59:34;;;;;;;1.90;1.27;;;;;;;;;;5060773;27;89062;-61
2022/11/21 05:02:03;;;;;;;1.47;1.00;;;;;;;;;;5061335;27;88251;-61
2022/11/21 05:04:31;;;;;;;2.77;1.50;;;;;;;;;;5060794;27;87875;-61
2022/11/21 05:06:59;;;;;;;1.70;1.23;;;;;;;;;;5061318;27;86306;-62
2022/11/21 05:09:28;;;;;;;1.63;1.50;;;;;;;;;;5060007;27;89216;-62
2022/11/21 05:14:55;;;;;;;4.53;1.27;;;;;;;;;;4957395;28;88348;-62
2022/11/21 05:17:23;;;;;;;1.43;1.33;;;;;;;;;;5042057;27;86944;-61
2022/11/21 05:19:51;;;;;;;2.77;1.77;;;;;;;;;;5061341;27;88662;-61
2022/11/21 05:22:20;;;;;;;1.50;1.40;;;;;;;;;;5062047;27;88842;-61
2022/11/21 05:24:48;;;;;;;1.10;0.90;;;;;;;;;;5061650;27;86879;-62
2022/11/21 05:27:16;;;;;;;1.53;0.97;;;;;;;;;;5061010;27;86893;-61
2022/11/21 05:29:45;;;;;;;2.03;1.30;;;;;;;;;;5061843;27;88820;-61
2022/11/21 05:32:14;;;;;;;2.03;1.23;;;;;;;;;;5054403;27;88848;-61
2022/11/21 05:34:43;;;;;;;2.13;1.57;;;;;;;;;;5061511;27;87138;-61
2022/11/21 05:37:11;;;;;;;1.70;1.10;;;;;;;;;;5060944;27;87027;-61
2022/11/21 05:39:39;;;;;;;1.57;1.20;;;;;;;;;;5061305;27;89815;-62
2022/11/21 05:42:08;;;;;;;1.30;0.90;;;;;;;;;;5060960;27;89835;-61
2022/11/21 05:44:35;;;;;;;1.13;1.00;;;;;;;;;;5061575;27;87036;-62
2022/11/21 05:47:03;;;;;;;1.13;1.07;;;;;;;;;;5061333;27;87159;-61
2022/11/21 05:49:33;;;;;;;1.43;1.10;;;;;;;;;;5060960;27;89051;-61
2022/11/21 05:52:01;;;;;;;1.67;1.17;;;;;;;;;;5061304;27;88874;-61
2022/11/21 05:54:30;;;;;;;1.37;1.27;;;;;;;;;;5064463;27;87032;-62
2022/11/21 05:56:58;;;;;;;1.27;1.17;;;;;;;;;;5064821;27;86292;-61
2022/11/21 05:59:26;;;;;;;1.80;1.47;;;;;;;;;;5063267;27;89250;-61
2022/11/21 06:04:42;;;;;;;1.23;1.00;;;;;;;;;;5064628;27;87982;-61
2022/11/21 06:07:10;;;;;;;1.70;1.20;;;;;;;;;;5064465;27;87149;-61
2022/11/21 06:09:38;;;;;;;1.27;1.00;;;;;;;;;;5064960;27;89345;-62
2022/11/21 06:12:07;;;;;;;1.47;1.37;;;;;;;;;;5062420;27;87772;-62
2022/11/21 06:14:35;;;;;;;1.10;1.00;;;;;;;;;;5047356;27;87006;-62
2022/11/21 06:17:03;;;;;;;1.10;0.87;;;;;;;;;;5063917;27;87015;-61
2022/11/21 06:19:32;;;;;;;1.33;1.10;;;;;;;;;;5064171;27;88071;-61
2022/11/21 06:22:02;;;;;;;1.57;0.90;;;;;;;;;;5064155;27;91496;-62
2022/11/21 06:24:30;;;;;;;1.03;0.93;;;;;;;;;;5063915;27;87011;-61
2022/11/21 06:26:59;;;;;;;1.33;1.20;;;;;;;;;;5064027;27;87007;-61
2022/11/21 06:29:27;;;;;;;2.07;1.23;;;;;;;;;;5063130;27;90125;-62
2022/11/21 06:31:55;;;;;;;2.30;1.53;;;;;;;;;;5063831;27;88796;-62
2022/11/21 06:34:26;;;;;;;1.10;1.00;;;;;;;;;;5063555;27;87082;-61
2022/11/21 06:36:54;;;;;;;1.17;1.13;;;;;;;;;;5063716;27;87038;-61
2022/11/21 06:39:24;;;;;;;1.47;1.03;;;;;;;;;;5063780;27;92320;-61
2022/11/21 06:41:52;;;;;;;2.83;1.23;;;;;;;;;;5063675;27;88768;-61
2022/11/21 06:44:21;;;;;;;1.53;1.17;;;;;;;;;;5064231;27;86931;-61
2022/11/21 06:46:49;;;;;;;1.00;0.93;;;;;;;;;;5064243;27;86365;-61
2022/11/21 06:49:19;;;;;;;0.97;0.97;;;;;;;;;;5063025;27;89245;-62
2022/11/21 06:51:47;;;;;;;1.00;0.90;;;;;;;;;;5063463;27;88733;-61
2022/11/21 06:54:15;;;;;;;1.07;0.97;;;;;;;;;;5062972;27;87934;-61
2022/11/21 06:56:45;;;;;;;1.43;1.23;;;;;;;;;;5063761;27;86959;-62
2022/11/21 06:59:14;;;;;;;1.10;0.97;;;;;;;;;;5044739;27;88952;-62
2022/11/21 07:01:42;;;;;;;1.77;1.40;;;;;;;;;;5063798;27;88682;-61
2022/11/21 07:04:11;;;;;;;2.07;1.43;;;;;;;;;;5063587;27;87055;-61
2022/11/21 07:06:39;;;;;;;0.80;0.80;;;;;;;;;;5063567;27;86898;-61
2022/11/21 07:09:08;;;;;;;0.80;0.80;;;;;;;;;;5063878;27;87893;-61
2022/11/21 07:13:20;;;;;;;1.83;1.03;;;;;;;;;;5044860;27;88318;-61
2022/11/21 07:14:45;;;;;;;2.17;1.30;;;;;;;;;;5062152;27;87038;-61
2022/11/21 07:17:14;;;;;;;1.00;0.93;;;;;;;;;;5057663;27;87039;-62
2022/11/21 07:19:42;;;;;;;1.00;1.00;;;;;;;;;;5057665;27;90048;-62
2022/11/21 07:22:10;;;;;;;1.10;1.00;;;;;;;;;;5062521;27;89803;-62
2022/11/21 07:24:39;;;;;;;1.57;1.33;;;;;;;;;;5063358;27;87002;-62
2022/11/21 07:27:08;;;;;;;1.60;0.90;;;;;;;;;;5058293;27;86889;-62
2022/11/21 07:29:37;;;;;;;1.00;1.00;;;;;;;;;;5063633;27;89007;-62
2022/11/21 07:32:05;;;;;;;1.10;0.90;;;;;;;;;;5063360;27;88967;-62
2022/11/21 07:34:34;;;;;;;2.97;1.33;;;;;;;;;;5061688;27;87455;-62
2022/11/21 07:37:02;;;;;;;2.00;0.80;;;;;;;;;;5063409;27;86339;-62
2022/11/21 07:39:32;;;;;;;1.67;1.10;;;;;;;;;;5063657;27;88170;-62
2022/11/21 07:42:00;;;;;;;2.37;1.13;;;;;;;;;;5060977;27;88970;-61
2022/11/21 07:44:30;;;;;;;1.30;1.20;;;;;;;;;;5062223;27;88076;-61
2022/11/21 07:46:59;;;;;;;1.53;1.30;;;;;;;;;;5063916;27;86838;-61
2022/11/21 07:49:27;;;;;;;2.67;1.07;;;;;;;;;;5057894;27;89165;-63
2022/11/21 07:51:55;;;;;;;1.90;1.27;;;;;;;;;;5059374;27;88806;-62
2022/11/21 07:54:24;;;;;;;1.43;1.10;;;;;;;;;;5065307;27;88017;-61
2022/11/21 07:56:52;;;;;;;0.60;0.60;;;;;;;;;;5057569;27;87059;-62
2022/11/21 07:59:21;;;;;;;0.90;0.90;;;;;;;;;;5057049;27;89065;-62
2022/11/21 08:01:51;;;;;;;0.93;0.90;;;;;;;;;;5054933;27;88943;-61
2022/11/21 08:04:19;;;;;;;0.77;0.60;;;;;;;;;;5062248;27;87034;-62
2022/11/21 08:06:48;;;;;;;1.00;0.90;;;;;;;;;;5061766;27;87924;-64
2022/11/21 08:09:16;;;;;;;1.80;0.93;;;;;;;;;;5064949;27;89701;-63
2022/11/21 08:11:44;;;;;;;1.40;1.30;;;;;;;;;;5057002;27;89330;-63
2022/11/21 08:14:13;;;;;;;1.20;1.10;;;;;;;;;;5053517;27;87082;-63
2022/11/21 08:16:41;;;;;;;1.10;0.90;;;;;;;;;;5057246;27;87022;-63
2022/11/21 08:19:11;;;;;;;1.73;0.90;;;;;;;;;;5071557;27;88035;-62
2022/11/21 08:21:39;;;;;;;1.57;0.93;;;;;;;;;;5059112;27;89126;-62
2022/11/21 08:24:12;;;;;;;0.90;0.73;;;;;;;;;;5061823;27;87586;-63
2022/11/21 08:26:40;;;;;;;1.43;0.90;;;;;;;;;;5062361;27;86224;-62
2022/11/21 08:29:10;;;;;;;0.90;0.80;;;;;;;;;;5068076;27;86914;-62
2022/11/21 08:31:38;;;;;;;1.27;0.93;;;;;;;;;;5062473;27;88260;-63
2022/11/21 08:34:06;;;;;;;1.43;0.90;;;;;;;;;;5062488;27;87927;-62
2022/11/21 08:36:42;;;;;;;1.10;1.00;;;;;;;;;;5062322;27;86998;-62
2022/11/21 08:39:11;;;;;;;2.10;1.10;;;;;;;;;;5062824;27;89043;-63
2022/11/21 08:44:26;;;;;;;3.30;0.77;;;;;;;;;;5062866;27;87108;-63
2022/11/21 08:46:55;;;;;;;1.90;1.23;;;;;;;;;;5063021;27;86992;-62
2022/11/21 08:49:23;;;;;;;1.13;0.80;;;;;;;;;;5062708;27;89180;-63
2022/11/21 08:51:53;;;;;;;1.00;0.60;;;;;;;;;;5062593;27;88465;-62
2022/11/21 08:54:22;;;;;;;1.03;0.93;;;;;;;;;;5062012;27;87121;-62
2022/11/21 08:56:50;;;;;;;1.33;0.80;;;;;;;;;;5062561;27;86921;-62
2022/11/21 08:59:19;;;;;;;0.90;0.90;;;;;;;;;;5061529;27;90077;-63
2022/11/21 09:01:47;;;;;;;0.50;0.50;;;;;;;;;;5062091;27;89700;-62
2022/11/21 09:04:16;;;;;;;0.90;0.90;;;;;;;;;;5062465;27;87103;-62
2022/11/21 09:06:45;;;;;;;0.73;0.73;;;;;;;;;;5062431;27;86999;-63
2022/11/21 09:09:15;;;;;;;1.20;0.87;;;;;;;;;;5062302;27;88840;-62
2022/11/21 09:11:51;;;;;;;1.80;0.73;;;;;;;;;;5061638;27;88875;-63
2022/11/21 09:19:51;;;;;;;2.20;0.73;;;;;;;;;;5062234;27;89315;-64
2022/11/21 09:22:19;;;;;;;0.60;0.60;;;;;;;;;;5062194;27;88896;-63
2022/11/21 09:24:49;;;;;;;0.40;0.40;;;;;;;;;;5068959;27;88015;-63
2022/11/21 09:27:17;;;;;;;1.30;0.90;;;;;;;;;;5062458;27;87045;-63
2022/11/21 09:29:45;;;;;;;1.60;0.80;;;;;;;;;;5065782;27;88698;-63
2022/11/21 09:32:21;;;;;;;0.93;0.73;;;;;;;;;;5065992;27;87820;-63
2022/11/21 09:34:49;;;;;;;0.77;0.70;;;;;;;;;;5077080;27;87018;-63
2022/11/21 09:37:18;;;;;;;1.07;0.80;;;;;;;;;;5086648;27;87092;-63
2022/11/21 09:39:46;;;;;;;0.67;0.67;;;;;;;;;;5085908;27;88242;-63
2022/11/21 09:42:26;;;;;;;0.50;0.50;;;;;;;;;;5085695;27;88771;-63
2022/11/21 09:44:58;;;;;;;0.60;0.60;;;;;;;;;;5085679;27;86808;-63
2022/11/21 09:47:27;;;;;;;0.43;0.40;;;;;;;;;;5085991;27;86912;-63
2022/11/21 09:49:57;;;;;;;1.53;0.67;;;;;;;;;;5067866;27;90146;-63
2022/11/21 09:52:27;;;;;;;0.57;0.57;;;;;;;;;;5065584;27;89857;-62
2022/11/21 09:54:56;;;;;;;1.10;0.80;;;;;;;;;;5065658;27;87060;-63
2022/11/21 09:57:26;;;;;;;0.50;0.50;;;;;;;;;;5064980;27;87161;-63
2022/11/21 10:00:02;;;;;;;1.07;0.53;;;;;;;;;;5065144;27;89035;-63
2022/11/21 10:02:30;;;;;;;0.70;0.70;;;;;;;;;;5065488;27;88917;-63
2022/11/21 10:04:59;;;;;;;1.97;0.97;;;;;;;;;;5065486;27;86834;-63
2022/11/21 10:07:28;;;;;;;1.53;0.70;;;;;;;;;;5065765;27;86281;-63
2022/11/21 10:10:05;;;;;;;1.10;0.70;;;;;;;;;;5064675;27;89182;-63
2022/11/21 10:12:37;;;;;;;0.67;0.60;;;;;;;;;;5062020;27;88935;-63
2022/11/21 10:15:08;;;;;;;0.50;0.47;;;;;;;;;;5065027;27;88034;-63
2022/11/21 10:17:40;;;;;;;0.40;0.40;;;;;;;;;;5065229;27;86827;-63
2022/11/21 10:20:16;;;;;;;0.30;0.30;;;;;;;;;;5064485;27;88881;-62
2022/11/21 10:22:53;;;;;;;0.70;0.70;;;;;;;;;;5061048;27;88776;-62
2022/11/21 10:25:23;;;;;;;0.60;0.50;;;;;;;;;;5064433;27;87040;-62
2022/11/21 10:27:56;;;;;;;1.03;0.50;;;;;;;;;;5064866;27;86878;-62
2022/11/21 10:30:24;;;;;;;0.60;0.60;;;;;;;;;;5064806;27;89088;-62
2022/11/21 10:32:54;;;;;;;0.93;0.60;;;;;;;;;;5065517;27;88292;-62
2022/11/21 10:35:22;;;;;;;0.97;0.90;;;;;;;;;;5064797;27;86875;-62
2022/11/21 10:37:52;;;;;;;2.50;1.17;;;;;;;;;;5063864;27;86953;-62
2022/11/21 10:40:32;;;;;;;1.97;0.63;;;;;;;;;;5064281;27;88937;-62
2022/11/21 10:45:15;;;;;;;0.67;0.60;;;;;;;;;;5062634;27;89400;-62
2022/11/21 10:45:52;;;;;;;1.07;0.50;;;;;;;;;;5085159;27;87020;-62
2022/11/21 10:48:20;;;;;;;0.63;0.50;;;;;;;;;;5084574;27;87059;-62
2022/11/21 10:50:52;;;;;;;0.50;0.50;;;;;;;;;;5084435;27;89064;-62
2022/11/21 10:56:07;;;;;;;0.60;0.30;;;;;;;;;;5085098;27;87051;-62
2022/11/21 10:58:42;;;;;;;0.83;0.53;;;;;;;;;;5085278;27;86282;-62
2022/11/21 11:01:19;;;;;;;1.33;0.53;;;;;;;;;;5084718;27;89154;-62
2022/11/21 11:03:48;;;;;;;0.60;0.60;;;;;;;;;;5085303;27;87500;-64
2022/11/21 11:06:36;;;;;;;0.87;0.53;;;;;;;;;;5084797;27;87826;-61
2022/11/21 11:09:05;;;;;;;0.50;0.50;;;;;;;;;;5084916;27;86948;-62
2022/11/21 11:11:34;;;;;;;1.20;0.60;;;;;;;;;;5085196;27;88904;-62
2022/11/21 11:14:04;;;;;;;0.53;0.50;;;;;;;;;;5084544;27;88802;-62
2022/11/21 11:16:33;;;;;;;0.40;0.40;;;;;;;;;;5084629;27;86983;-62
2022/11/21 11:19:16;;;;;;;0.40;0.40;;;;;;;;;;5084774;27;86992;-62
2022/11/21 11:21:45;;;;;;;0.70;0.60;;;;;;;;;;5084239;27;89216;-64
2022/11/21 11:24:20;;;;;;;1.13;0.90;;;;;;;;;;5084747;27;88909;-62
2022/11/21 11:26:52;;;;;;;0.50;0.40;;;;;;;;;;5084439;27;87020;-62
2022/11/21 11:29:22;;;;;;;0.60;0.53;;;;;;;;;;5084189;27;86851;-62
2022/11/21 11:31:53;;;;;;;0.63;0.50;;;;;;;;;;5083776;27;90087;-62
2022/11/21 11:34:21;;;;;;;0.67;0.67;;;;;;;;;;5084346;27;89134;-62
2022/11/21 11:36:57;;;;;;;0.37;0.37;;;;;;;;;;5084720;27;88074;-62
2022/11/21 11:39:28;;;;;;;0.80;0.40;;;;;;;;;;5084601;27;86841;-62
2022/11/21 11:47:55;;;;;;;0.63;0.60;;;;;;;;;;5084810;27;86980;-62
2022/11/21 11:50:24;;;;;;;0.70;0.57;;;;;;;;;;5083413;27;86209;-62
2022/11/21 11:52:54;;;;;;;1.40;0.50;;;;;;;;;;5083670;27;90392;-62
2022/11/21 11:55:24;;;;;;;0.53;0.53;;;;;;;;;;5083683;27;89079;-62
2022/11/21 11:57:53;;;;;;;0.60;0.60;;;;;;;;;;5084272;27;87751;-61
2022/11/21 12:00:33;;;;;;;1.00;0.60;;;;;;;;;;5084014;27;87000;-62
2022/11/21 12:03:02;;;;;;;1.03;0.57;;;;;;;;;;5083547;27;89112;-62
2022/11/21 12:05:31;;;;;;;0.80;0.40;;;;;;;;;;5085203;27;91596;-61
2022/11/21 12:08:07;;;;;;;1.07;0.70;;;;;;;;;;5084425;27;86981;-62
2022/11/21 12:13:43;;;;;;;1.00;0.50;;;;;;;;;;5066575;27;89248;-64
2022/11/21 12:16:13;;;;;;;2.33;0.57;;;;;;;;;;5063625;27;87765;-61
2022/11/21 12:18:44;;;;;;;0.50;0.50;;;;;;;;;;5063436;27;86761;-62
2022/11/21 12:21:14;;;;;;;1.27;0.97;;;;;;;;;;5062925;27;86862;-62
2022/11/21 12:23:45;;;;;;;0.50;0.40;;;;;;;;;;5062296;27;89970;-63
2022/11/21 12:26:32;;;;;;;0.33;0.30;;;;;;;;;;5062708;27;88669;-62
2022/11/21 12:29:06;;;;;;;2.53;0.70;;;;;;;;;;5062567;27;87013;-62
2022/11/21 12:31:39;;;;;;;0.30;0.30;;;;;;;;;;5062837;27;86952;-62
2022/11/21 12:34:10;;;;;;;0.53;0.47;;;;;;;;;;5062199;27;92280;-62
2022/11/21 12:36:39;;;;;;;0.40;0.40;;;;;;;;;;5062676;27;88782;-63
2022/11/21 12:39:11;;;;;;;0.40;0.40;;;;;;;;;;5062867;27;87174;-62
2022/11/21 12:44:32;;;;;;;0.60;0.60;;;;;;;;;;5062527;27;89123;-62
2022/11/21 12:47:06;;;;;;;0.63;0.40;;;;;;;;;;5063163;27;88945;-63
2022/11/21 12:55:20;;;;;;;2.43;0.90;;;;;;;;;;4987192;27;89171;-62
2022/11/21 12:57:57;;;;;;;1.17;0.40;;;;;;;;;;5063250;27;88876;-62
2022/11/21 13:00:26;;;;;;;0.47;0.30;;;;;;;;;;5063743;27;87015;-62
2022/11/21 13:03:10;;;;;;;0.90;0.50;;;;;;;;;;5065836;27;86896;-62
2022/11/21 13:05:40;;;;;;;0.30;0.30;;;;;;;;;;5066174;27;89300;-62
2022/11/21 13:08:10;;;;;;;0.60;0.40;;;;;;;;;;5067579;27;88494;-61
2022/11/21 13:10:39;;;;;;;0.40;0.33;;;;;;;;;;5067871;27;87044;-64
2022/11/21 13:13:09;;;;;;;1.90;0.70;;;;;;;;;;5067961;27;87033;-64
2022/11/21 13:15:39;;;;;;;0.73;0.40;;;;;;;;;;5066689;27;88965;-62
2022/11/21 13:18:16;;;;;;;0.40;0.40;;;;;;;;;;5068667;27;88745;-62
2022/11/21 13:20:46;;;;;;;0.90;0.90;;;;;;;;;;5067734;27;86959;-63
2022/11/21 13:23:30;;;;;;;0.40;0.40;;;;;;;;;;5068114;27;86915;-62
2022/11/21 13:25:58;;;;;;;1.10;0.50;;;;;;;;;;5068893;27;89131;-63
2022/11/21 13:28:33;;;;;;;0.70;0.40;;;;;;;;;;5069569;27;87708;-64
2022/11/21 13:31:02;;;;;;;0.60;0.47;;;;;;;;;;5071050;27;87238;-63
2022/11/21 13:33:48;;;;;;;0.63;0.40;;;;;;;;;;5074776;27;86233;-61
2022/11/21 13:36:31;;;;;;;2.10;0.73;;;;;;;;;;5068782;27;89136;-62
2022/11/21 13:39:33;;;;;;;0.43;0.43;;;;;;;;;;5069382;27;88884;-62
2022/11/21 13:44:52;;;;;;;0.40;0.40;;;;;;;;;;5070496;27;87109;-61
2022/11/21 13:47:39;;;;;;;3.53;0.50;;;;;;;;;;5071429;27;89223;-64
2022/11/21 13:50:18;;;;;;;0.50;0.50;;;;;;;;;;5077055;27;87898;-63
2022/11/21 13:52:47;;;;;;;0.67;0.67;;;;;;;;;;5085322;27;87041;-63
2022/11/21 13:55:30;;;;;;;0.60;0.40;;;;;;;;;;5085517;27;86477;-61
2022/11/21 13:58:02;;;;;;;0.70;0.70;;;;;;;;;;5063766;27;88031;-62
2022/11/21 14:00:33;;;;;;;0.77;0.47;;;;;;;;;;5082985;27;88778;-62
2022/11/21 14:03:16;;;;;;;0.83;0.63;;;;;;;;;;5074832;27;88050;-61
2022/11/21 14:05:49;;;;;;;1.23;0.40;;;;;;;;;;5049175;27;87169;-63
2022/11/21 14:08:18;;;;;;;0.70;0.70;;;;;;;;;;5075458;27;88051;-63
2022/11/21 14:10:47;;;;;;;2.10;0.70;;;;;;;;;;5073918;27;89663;-63
2022/11/21 14:13:18;;;;;;;1.13;0.47;;;;;;;;;;5073674;27;87968;-65
2022/11/21 14:15:48;;;;;;;0.60;0.60;;;;;;;;;;5074873;27;87028;-63
2022/11/21 14:18:21;;;;;;;1.03;0.80;;;;;;;;;;5073495;27;87988;-61
2022/11/21 14:20:52;;;;;;;0.70;0.70;;;;;;;;;;5068101;27;87552;-62
2022/11/21 14:23:21;;;;;;;0.47;0.37;;;;;;;;;;5065273;27;86754;-62
2022/11/21 14:25:50;;;;;;;1.07;0.37;;;;;;;;;;5065287;27;86257;-61
2022/11/21 14:28:21;;;;;;;0.50;0.50;;;;;;;;;;5064602;27;89094;-62
2022/11/21 14:30:50;;;;;;;0.80;0.50;;;;;;;;;;5065051;27;87750;-62
2022/11/21 14:33:22;;;;;;;0.50;0.50;;;;;;;;;;5063879;27;88077;-62
2022/11/21 14:35:53;;;;;;;0.83;0.43;;;;;;;;;;5064872;27;87025;-62
2022/11/21 14:38:21;;;;;;;0.37;0.37;;;;;;;;;;5065077;27;89229;-62
2022/11/21 14:40:50;;;;;;;0.77;0.70;;;;;;;;;;5064555;27;90734;-62
2022/11/21 14:43:28;;;;;;;0.47;0.40;;;;;;;;;;5064617;27;87001;-64
2022/11/21 14:45:57;;;;;;;0.53;0.53;;;;;;;;;;5064785;27;86853;-63
2022/11/21 14:48:28;;;;;;;0.40;0.40;;;;;;;;;;5064772;27;87950;-63
2022/11/21 14:50:59;;;;;;;0.30;0.30;;;;;;;;;;5064907;27;89051;-63
2022/11/21 14:53:29;;;;;;;0.67;0.30;;;;;;;;;;5050977;27;87043;-64
2022/11/21 14:55:57;;;;;;;0.60;0.60;;;;;;;;;;5064462;27;86923;-64
2022/11/21 14:58:29;;;;;;;0.73;0.57;;;;;;;;;;5064600;27;90171;-62
2022/11/21 15:01:03;;;;;;;0.77;0.50;;;;;;;;;;5064183;27;89736;-62
2022/11/21 15:03:32;;;;;;;0.50;0.50;;;;;;;;;;5064354;27;87022;-64
2022/11/21 15:06:02;;;;;;;0.50;0.50;;;;;;;;;;5045191;27;87005;-62
2022/11/21 15:08:34;;;;;;;0.50;0.50;;;;;;;;;;5043773;28;89245;-62
2022/11/21 15:11:23;;;;;;;0.53;0.40;;;;;;;;;;5043846;28;90412;-62
2022/11/21 15:13:54;;;;;;;0.60;0.57;;;;;;;;;;5043748;27;87351;-62
2022/11/21 15:16:42;;;;;;;0.40;0.40;;;;;;;;;;5050739;27;86107;-62
2022/11/21 15:19:11;;;;;;;1.00;1.00;;;;;;;;;;5062821;27;89308;-62
2022/11/21 15:21:45;;;;;;;0.63;0.47;;;;;;;;;;5063666;27;87948;-62
2022/11/21 15:24:17;;;;;;;0.40;0.40;;;;;;;;;;5046445;27;87932;-63
2022/11/21 15:26:45;;;;;;;0.60;0.40;;;;;;;;;;5043315;28;86951;-64
2022/11/21 15:29:19;;;;;;;1.60;0.60;;;;;;;;;;5043438;28;89169;-63
2022/11/21 15:31:51;;;;;;;0.33;0.30;;;;;;;;;;5042990;28;88972;-63
2022/11/21 15:34:26;;;;;;;0.50;0.50;;;;;;;;;;5041097;28;87031;-63
2022/11/21 15:37:07;;;;;;;1.17;0.60;;;;;;;;;;5042694;28;86845;-63